createdAt,value
2022-12-04T00:01:29.331Z,34.15
2022-12-04T00:04:00.360Z,34.15
2022-12-04T00:06:29.002Z,33.80
2022-12-04T00:08:56.704Z,34.25
2022-12-04T00:11:29.132Z,34.40
2022-12-04T00:14:02.955Z,34.10
2022-12-04T00:16:29.581Z,33.95
2022-12-04T00:18:58.048Z,33.95
2022-12-04T00:21:26.787Z,32.83
2022-12-04T00:23:54.769Z,29.67
2022-12-04T00:26:26.121Z,30.62
2022-12-04T00:28:55.695Z,29.23
2022-12-04T00:31:27.212Z,28.80
2022-12-04T00:33:55.160Z,27.67
2022-12-04T00:36:25.411Z,27.75
2022-12-04T00:38:54.310Z,26.62
2022-12-04T00:41:25.223Z,25.97
2022-12-04T00:43:53.022Z,26.73
2022-12-04T00:46:21.470Z,25.55
2022-12-04T00:48:49.947Z,24.45
2022-12-04T00:51:22.175Z,24.77
2022-12-04T00:53:51.324Z,24.55
2022-12-04T00:56:26.028Z,24.32
2022-12-04T00:58:57.362Z,24.87
2022-12-04T01:01:26.120Z,25.37
2022-12-04T01:03:55.503Z,24.43
2022-12-04T01:06:31.098Z,24.25
2022-12-04T01:11:29.350Z,24.47
2022-12-04T01:13:58.706Z,25.88
2022-12-04T01:16:31.333Z,26.37
2022-12-04T01:18:59.154Z,27.95
2022-12-04T01:21:27.022Z,27.32
2022-12-04T01:23:55.097Z,28.55
2022-12-04T01:26:22.910Z,28.47
2022-12-04T01:28:50.805Z,29.07
2022-12-04T01:31:21.109Z,28.40
2022-12-04T01:33:49.723Z,29.32
2022-12-04T01:36:24.775Z,30.10
2022-12-04T01:38:53.238Z,30.60
2022-12-04T01:41:25.341Z,28.55
2022-12-04T01:44:19.192Z,28.10
2022-12-04T01:46:54.328Z,27.80
2022-12-04T01:49:45.241Z,30.17
2022-12-04T01:52:22.374Z,27.22
2022-12-04T01:54:58.661Z,26.93
2022-12-04T01:57:30.743Z,23.80
2022-12-04T02:00:03.550Z,23.70
2022-12-04T02:02:35.941Z,21.07
2022-12-04T02:05:09.228Z,21.57
2022-12-04T02:07:39.123Z,20.32
2022-12-04T02:10:09.665Z,18.57
2022-12-04T02:13:05.277Z,18.30
2022-12-04T02:15:56.668Z,16.02
2022-12-04T02:18:41.707Z,17.30
2022-12-04T02:21:23.655Z,18.00
2022-12-04T02:24:27.239Z,19.07
2022-12-04T02:27:09.164Z,15.35
2022-12-04T02:29:47.980Z,14.80
2022-12-04T02:32:27.013Z,15.95
2022-12-04T02:35:05.917Z,15.53
2022-12-04T02:37:38.680Z,15.45
2022-12-04T02:40:12.078Z,15.20
2022-12-04T02:42:51.166Z,15.08
2022-12-04T02:45:25.821Z,14.40
2022-12-04T02:47:55.236Z,14.53
2022-12-04T02:50:24.984Z,14.68
2022-12-04T02:53:20.966Z,14.55
2022-12-04T02:58:32.113Z,12.58
2022-12-04T03:03:32.815Z,14.03
2022-12-04T03:06:10.641Z,13.85
2022-12-04T03:08:50.948Z,13.35
2022-12-04T03:11:19.320Z,13.38
2022-12-04T03:13:55.339Z,13.00
2022-12-04T03:16:31.588Z,14.98
2022-12-04T03:19:16.714Z,15.00
2022-12-04T03:21:52.437Z,13.65
2022-12-04T03:24:25.060Z,12.75
2022-12-04T03:27:16.082Z,12.58
2022-12-04T03:30:01.128Z,13.28
2022-12-04T03:32:45.742Z,13.10
2022-12-04T03:35:33.533Z,15.10
2022-12-04T03:38:06.895Z,16.12
2022-12-04T03:40:52.231Z,16.02
2022-12-04T03:43:31.603Z,15.20
2022-12-04T03:46:07.644Z,15.40
2022-12-04T03:48:41.241Z,14.73
2022-12-04T03:51:32.229Z,14.40
2022-12-04T03:54:29.223Z,13.90
2022-12-04T03:57:05.197Z,13.13
2022-12-04T03:59:40.609Z,13.40
2022-12-04T04:04:41.898Z,15.80
2022-12-04T04:07:18.148Z,23.27
2022-12-04T04:09:50.259Z,14.83
2022-12-04T04:12:22.897Z,15.40
2022-12-04T04:15:16.786Z,14.80
2022-12-04T04:17:49.523Z,13.43
2022-12-04T04:20:39.984Z,12.65
2022-12-04T04:23:29.284Z,11.30
2022-12-04T04:26:00.107Z,11.93
2022-12-04T04:28:38.248Z,12.47
2022-12-04T04:31:35.947Z,12.63
2022-12-04T04:34:39.792Z,10.45
2022-12-04T04:37:19.261Z,12.82
2022-12-04T04:39:58.126Z,14.38
2022-12-04T04:42:49.782Z,16.32
2022-12-04T04:45:25.784Z,16.05
2022-12-04T04:48:20.342Z,13.55
2022-12-04T04:50:49.636Z,11.55
2022-12-04T04:53:21.907Z,11.88
2022-12-04T04:55:50.390Z,13.22
2022-12-04T04:58:21.106Z,13.13
2022-12-04T05:01:02.901Z,12.05
2022-12-04T05:03:32.007Z,11.95
2022-12-04T05:05:59.813Z,12.93
2022-12-04T05:08:27.423Z,12.05
2022-12-04T05:10:55.629Z,13.78
2022-12-04T05:13:23.548Z,13.88
2022-12-04T05:16:03.863Z,13.40
2022-12-04T05:18:36.879Z,12.90
2022-12-04T05:21:18.908Z,11.57
2022-12-04T05:23:46.923Z,12.20
2022-12-04T05:26:14.603Z,11.97
2022-12-04T05:28:42.359Z,12.50
2022-12-04T05:31:09.956Z,13.28
2022-12-04T05:33:37.528Z,12.90
2022-12-04T05:36:09.382Z,11.25
2022-12-04T05:38:37.818Z,13.93
2022-12-04T05:41:06.790Z,13.83
2022-12-04T05:43:35.479Z,14.65
2022-12-04T05:46:06.125Z,15.25
2022-12-04T05:48:35.526Z,15.23
2022-12-04T05:51:11.156Z,14.75
2022-12-04T05:53:39.132Z,14.78
2022-12-04T05:56:08.034Z,12.37
2022-12-04T05:58:38.078Z,11.08
2022-12-04T06:01:16.246Z,12.28
2022-12-04T06:03:44.688Z,11.05
2022-12-04T06:06:21.476Z,11.55
2022-12-04T06:08:46.849Z,11.68
2022-12-04T06:11:30.820Z,10.43
2022-12-04T06:14:01.339Z,11.80
2022-12-04T06:16:35.754Z,10.78
2022-12-04T06:19:07.892Z,11.87
2022-12-04T06:21:39.423Z,11.75
2022-12-04T06:24:07.960Z,13.68
2022-12-04T06:26:35.973Z,14.33
2022-12-04T06:29:03.815Z,14.45
2022-12-04T06:31:33.172Z,13.80
2022-12-04T06:34:00.852Z,12.15
2022-12-04T06:36:28.504Z,13.43
2022-12-04T06:38:57.606Z,13.03
2022-12-04T06:41:27.512Z,13.80
2022-12-04T06:43:55.863Z,18.20
2022-12-04T06:46:27.546Z,18.45
2022-12-04T06:48:57.455Z,21.37
2022-12-04T06:51:28.998Z,23.62
2022-12-04T06:53:57.391Z,19.07
2022-12-04T06:56:28.417Z,21.65
2022-12-04T06:58:59.656Z,17.98
2022-12-04T07:01:31.035Z,17.45
2022-12-04T07:04:03.105Z,17.10
2022-12-04T07:06:34.938Z,21.65
2022-12-04T07:09:10.683Z,22.80
2022-12-04T07:11:40.612Z,21.73
2022-12-04T07:14:09.272Z,21.75
2022-12-04T07:16:41.340Z,24.35
2022-12-04T07:19:10.659Z,32.17
2022-12-04T07:21:38.545Z,72.87
2022-12-04T07:24:07.343Z,34.90
2022-12-04T07:26:35.077Z,27.77
2022-12-04T07:29:03.196Z,22.15
2022-12-04T07:31:30.851Z,22.30
2022-12-04T07:33:59.854Z,22.95
2022-12-04T07:36:27.579Z,19.73
2022-12-04T07:38:56.094Z,18.20
2022-12-04T07:41:24.513Z,34.83
2022-12-04T07:43:52.193Z,30.15
2022-12-04T07:46:24.208Z,19.02
2022-12-04T07:48:51.995Z,18.32
2022-12-04T07:51:23.221Z,33.08
2022-12-04T07:53:54.404Z,26.15
2022-12-04T07:56:23.580Z,29.75
2022-12-04T07:58:51.244Z,25.25
2022-12-04T08:01:22.539Z,25.12
2022-12-04T08:03:52.529Z,54.65
2022-12-04T08:06:23.237Z,35.10
2022-12-04T08:08:51.825Z,29.52
2022-12-04T08:11:23.498Z,38.17
2022-12-04T08:13:59.343Z,30.97
2022-12-04T08:16:30.152Z,28.95
2022-12-04T08:18:58.351Z,33.40
2022-12-04T08:21:29.629Z,31.65
2022-12-04T08:23:59.241Z,33.23
2022-12-04T08:26:29.432Z,33.35
2022-12-04T08:28:57.742Z,34.40
2022-12-04T08:31:28.641Z,30.23
2022-12-04T08:33:58.587Z,27.60
2022-12-04T08:36:27.266Z,31.75
2022-12-04T08:38:57.672Z,29.63
2022-12-04T08:41:29.354Z,29.95
2022-12-04T08:43:58.433Z,32.17
2022-12-04T08:46:28.318Z,36.42
2022-12-04T08:48:57.666Z,30.95
2022-12-04T08:51:30.459Z,31.87
2022-12-04T08:54:02.554Z,34.33
2022-12-04T08:56:32.095Z,31.33
2022-12-04T08:59:01.015Z,33.98
2022-12-04T09:01:29.454Z,40.90
2022-12-04T09:03:57.609Z,45.65
2022-12-04T09:06:25.588Z,44.25
2022-12-04T09:08:56.817Z,35.33
2022-12-04T09:11:27.551Z,37.38
2022-12-04T09:13:55.363Z,43.20
2022-12-04T09:16:25.263Z,43.73
2022-12-04T09:18:54.097Z,42.85
2022-12-04T09:21:26.176Z,44.77
2022-12-04T09:23:56.259Z,36.42
2022-12-04T09:26:29.520Z,35.65
2022-12-04T09:29:01.633Z,43.78
2022-12-04T09:31:30.339Z,38.70
2022-12-04T09:34:02.088Z,48.15
2022-12-04T09:36:31.855Z,33.60
2022-12-04T09:38:59.429Z,40.73
2022-12-04T09:41:41.467Z,38.85
2022-12-04T09:44:17.039Z,34.18
2022-12-04T09:47:05.385Z,37.80
2022-12-04T09:49:50.757Z,37.00
2022-12-04T09:52:51.819Z,40.73
2022-12-04T09:55:40.062Z,35.35
2022-12-04T09:58:21.303Z,48.10
2022-12-04T10:00:52.229Z,37.58
2022-12-04T10:03:24.952Z,46.15
2022-12-04T10:06:23.065Z,32.23
2022-12-04T10:09:07.684Z,37.25
2022-12-04T10:11:50.732Z,44.98
2022-12-04T10:14:47.775Z,29.05
2022-12-04T10:17:44.258Z,33.20
2022-12-04T10:20:20.325Z,33.63
2022-12-04T10:23:20.613Z,30.25
2022-12-04T10:25:52.320Z,29.55
2022-12-04T10:28:41.158Z,29.57
2022-12-04T10:31:14.430Z,26.87
2022-12-04T10:34:09.027Z,30.68
2022-12-04T10:36:36.928Z,29.10
2022-12-04T10:39:16.339Z,34.27
2022-12-04T10:42:04.755Z,29.55
2022-12-04T10:44:33.066Z,28.77
2022-12-04T10:47:05.781Z,30.90
2022-12-04T10:49:36.324Z,26.85
2022-12-04T10:52:05.356Z,24.75
2022-12-04T10:54:50.153Z,25.68
2022-12-04T10:57:17.890Z,25.90
2022-12-04T10:59:56.074Z,33.08
2022-12-04T11:02:35.510Z,34.33
2022-12-04T11:05:07.815Z,35.52
2022-12-04T11:07:45.646Z,33.67
2022-12-04T11:10:39.577Z,28.57
2022-12-04T11:13:20.042Z,29.80
2022-12-04T11:15:56.904Z,33.28
2022-12-04T11:18:36.481Z,30.77
2022-12-04T11:21:28.037Z,32.03
2022-12-04T11:23:56.739Z,31.97
2022-12-04T11:26:34.934Z,34.40
2022-12-04T11:29:04.802Z,33.53
2022-12-04T11:31:33.704Z,32.08
2022-12-04T11:34:05.533Z,32.17
2022-12-04T11:36:40.064Z,31.65
2022-12-04T11:39:16.308Z,28.10
2022-12-04T11:41:44.420Z,27.13
2022-12-04T11:44:29.762Z,22.05
2022-12-04T11:47:01.928Z,22.17
2022-12-04T11:49:32.553Z,22.65
2022-12-04T11:52:29.764Z,23.27
2022-12-04T11:55:25.347Z,21.77
2022-12-04T11:58:18.466Z,23.10
2022-12-04T12:01:06.084Z,20.92
2022-12-04T12:03:51.071Z,20.37
2022-12-04T12:06:39.258Z,17.98
2022-12-04T12:09:34.646Z,18.70
2022-12-04T12:12:36.329Z,17.80
2022-12-04T12:16:03.679Z,15.65
2022-12-04T12:18:45.242Z,14.68
2022-12-04T12:21:47.318Z,14.73
2022-12-04T12:24:31.788Z,16.35
2022-12-04T12:27:28.031Z,15.10
2022-12-04T12:33:05.854Z,9.98
2022-12-04T12:35:47.854Z,8.83
2022-12-04T12:38:23.997Z,9.30
2022-12-04T12:41:00.070Z,7.25
2022-12-04T12:43:32.020Z,8.03
2022-12-04T12:46:17.950Z,13.20
2022-12-04T12:49:00.020Z,8.40
2022-12-04T12:51:37.852Z,6.62
2022-12-04T12:54:32.161Z,7.20
2022-12-04T12:57:08.134Z,6.95
2022-12-04T12:59:42.112Z,7.53
2022-12-04T13:02:24.464Z,6.62
2022-12-04T13:04:57.238Z,5.92
2022-12-04T13:07:52.733Z,5.45
2022-12-04T13:10:29.353Z,5.30
2022-12-04T13:13:02.527Z,6.05
2022-12-04T13:15:41.285Z,5.90
2022-12-04T13:18:13.321Z,6.17
2022-12-04T13:20:46.673Z,5.78
2022-12-04T13:23:48.607Z,6.53
2022-12-04T13:26:57.199Z,5.58
2022-12-04T13:30:14.246Z,5.70
2022-12-04T13:33:13.685Z,6.87
2022-12-04T13:36:24.728Z,6.60
2022-12-04T13:39:31.555Z,6.80
2022-12-04T13:42:03.522Z,6.30
2022-12-04T13:44:34.196Z,6.65
2022-12-04T13:47:09.546Z,6.62
2022-12-04T13:49:44.638Z,7.55
2022-12-04T13:52:23.973Z,6.67
2022-12-04T13:55:00.438Z,5.47
2022-12-04T13:57:29.823Z,7.08
2022-12-04T14:00:10.001Z,6.10
2022-12-04T14:02:44.716Z,6.05
2022-12-04T14:05:14.135Z,6.37
2022-12-04T14:08:07.536Z,7.20
2022-12-04T14:10:38.682Z,6.75
2022-12-04T14:13:24.392Z,6.35
2022-12-04T14:16:10.331Z,6.65
2022-12-04T14:18:48.009Z,6.03
2022-12-04T14:21:21.993Z,5.78
2022-12-04T14:23:53.863Z,5.47
2022-12-04T14:29:28.063Z,7.20
2022-12-04T14:32:01.432Z,6.67
2022-12-04T14:34:37.224Z,6.25
2022-12-04T14:37:13.138Z,6.67
2022-12-04T14:39:51.749Z,7.00
2022-12-04T14:42:35.204Z,7.78
2022-12-04T14:45:29.141Z,8.90
2022-12-04T14:48:20.311Z,8.65
2022-12-04T14:50:58.714Z,10.23
2022-12-04T14:53:55.437Z,7.78
2022-12-04T14:56:45.446Z,23.40
2022-12-04T14:59:23.131Z,8.00
2022-12-04T15:01:58.146Z,7.53
2022-12-04T15:04:33.616Z,8.98
2022-12-04T15:07:10.200Z,8.28
2022-12-04T15:10:13.804Z,7.72
2022-12-04T15:12:54.974Z,8.30
2022-12-04T15:15:48.056Z,10.15
2022-12-04T15:18:20.522Z,11.35
2022-12-04T15:20:56.305Z,10.82
2022-12-04T15:23:44.896Z,10.30
2022-12-04T15:26:20.238Z,8.70
2022-12-04T15:29:06.156Z,8.75
2022-12-04T15:31:40.228Z,9.28
2022-12-04T15:34:14.057Z,8.48
2022-12-04T15:37:01.829Z,9.83
2022-12-04T15:39:34.032Z,8.55
2022-12-04T15:42:18.655Z,8.63
2022-12-04T15:45:03.863Z,8.58
2022-12-04T15:47:47.218Z,8.08
2022-12-04T15:50:21.592Z,7.15
2022-12-04T15:53:03.329Z,8.68
2022-12-04T15:55:40.835Z,9.03
2022-12-04T15:58:32.960Z,10.38
2022-12-04T16:01:15.510Z,7.60
2022-12-04T16:03:52.301Z,6.87
2022-12-04T16:06:28.614Z,7.58
2022-12-04T16:09:20.831Z,9.23
2022-12-04T16:11:59.660Z,9.43
2022-12-04T16:14:36.146Z,9.38
2022-12-04T16:17:14.076Z,9.08
2022-12-04T16:19:42.964Z,11.12
2022-12-04T16:22:21.157Z,11.03
2022-12-04T16:24:52.109Z,10.25
2022-12-04T16:27:24.463Z,9.98
2022-12-04T16:29:55.683Z,10.78
2022-12-04T16:32:31.611Z,10.10
2022-12-04T16:35:01.285Z,11.73
2022-12-04T16:37:31.670Z,12.35
2022-12-04T16:39:59.608Z,25.68
2022-12-04T16:42:31.982Z,14.15
2022-12-04T16:45:00.426Z,15.35
2022-12-04T16:47:28.541Z,15.43
2022-12-04T16:49:58.444Z,14.13
2022-12-04T16:52:26.675Z,13.98
2022-12-04T16:54:56.846Z,20.48
2022-12-04T16:57:24.671Z,19.25
2022-12-04T16:59:55.620Z,17.70
2022-12-04T17:02:33.793Z,14.65
2022-12-04T17:05:05.127Z,14.45
2022-12-04T17:07:35.619Z,13.60
2022-12-04T17:10:06.054Z,13.32
2022-12-04T17:12:40.021Z,13.38
2022-12-04T17:15:12.584Z,13.22
2022-12-04T17:17:41.352Z,13.40
2022-12-04T17:20:16.256Z,13.18
2022-12-04T17:22:43.997Z,12.55
2022-12-04T17:25:13.148Z,14.60
2022-12-04T17:27:41.550Z,15.83
2022-12-04T17:30:11.470Z,15.98
2022-12-04T17:32:39.553Z,16.10
2022-12-04T17:35:09.325Z,18.65
2022-12-04T17:37:38.160Z,17.40
2022-12-04T17:40:10.073Z,17.85
2022-12-04T17:42:37.758Z,16.77
2022-12-04T17:45:07.972Z,16.73
2022-12-04T17:47:36.776Z,15.43
2022-12-04T17:50:07.354Z,15.83
2022-12-04T17:52:38.101Z,15.53
2022-12-04T17:55:08.976Z,16.90
2022-12-04T17:57:36.550Z,16.00
2022-12-04T18:00:07.353Z,18.12
2022-12-04T18:02:37.619Z,16.30
2022-12-04T18:05:06.016Z,15.72
2022-12-04T18:07:34.180Z,15.72
2022-12-04T18:10:02.176Z,17.35
2022-12-04T18:12:30.893Z,15.50
2022-12-04T18:14:58.764Z,14.10
2022-12-04T18:17:26.238Z,13.40
2022-12-04T18:19:56.926Z,15.28
2022-12-04T18:22:24.295Z,14.63
2022-12-04T18:24:51.951Z,16.75
2022-12-04T18:27:19.370Z,16.60
2022-12-04T18:29:47.291Z,15.18
2022-12-04T18:32:15.127Z,13.98
2022-12-04T18:34:43.712Z,14.00
2022-12-04T18:37:11.623Z,14.78
2022-12-04T18:39:39.244Z,15.50
2022-12-04T18:42:08.462Z,12.78
2022-12-04T18:44:36.715Z,13.55
2022-12-04T18:47:04.776Z,12.47
2022-12-04T18:49:33.547Z,12.30
2022-12-04T18:52:01.342Z,12.65
2022-12-04T18:54:29.499Z,12.60
2022-12-04T18:56:57.798Z,12.63
2022-12-04T18:59:29.569Z,13.15
2022-12-04T19:01:58.173Z,12.05
2022-12-04T19:04:27.783Z,11.70
2022-12-04T19:06:56.334Z,11.97
2022-12-04T19:10:02.021Z,14.85
2022-12-04T19:11:57.351Z,14.38
2022-12-04T19:14:25.488Z,15.50
2022-12-04T19:16:55.174Z,19.55
2022-12-04T19:19:27.464Z,23.00
2022-12-04T19:21:53.310Z,20.27
2022-12-04T19:24:21.559Z,15.83
2022-12-04T19:26:50.540Z,12.60
2022-12-04T19:29:18.717Z,12.37
2022-12-04T19:31:46.996Z,12.68
2022-12-04T19:34:15.258Z,12.98
2022-12-04T19:36:46.867Z,13.88
2022-12-04T19:39:15.576Z,14.20
2022-12-04T19:41:43.256Z,15.38
2022-12-04T19:44:40.181Z,15.95
2022-12-04T19:46:42.720Z,16.10
2022-12-04T19:49:12.158Z,14.45
2022-12-04T19:51:43.716Z,13.28
2022-12-04T19:54:13.144Z,15.25
2022-12-04T19:56:42.448Z,12.55
2022-12-04T19:59:10.610Z,12.25
2022-12-04T20:01:38.958Z,16.90
2022-12-04T20:04:12.638Z,9.90
2022-12-04T20:06:45.441Z,9.18
2022-12-04T20:09:20.872Z,9.55
2022-12-04T20:14:17.101Z,12.47
2022-12-04T20:16:46.518Z,10.35
2022-12-04T20:19:17.656Z,11.85
2022-12-04T20:21:46.361Z,10.80
2022-12-04T20:24:16.116Z,10.35
2022-12-04T20:26:45.956Z,9.65
2022-12-04T20:29:18.527Z,11.30
2022-12-04T20:31:48.124Z,9.73
2022-12-04T20:34:23.040Z,10.00
2022-12-04T20:36:50.931Z,10.85
2022-12-04T20:39:20.369Z,13.50
2022-12-04T20:41:48.507Z,12.80
2022-12-04T20:44:29.058Z,12.63
2022-12-04T20:46:58.399Z,14.15
2022-12-04T20:49:26.888Z,14.98
2022-12-04T20:51:54.903Z,13.78
2022-12-04T20:54:23.254Z,13.60
2022-12-04T20:56:53.229Z,15.25
2022-12-04T20:59:23.301Z,16.55
2022-12-04T21:01:52.260Z,18.00
2022-12-04T21:04:20.779Z,16.90
2022-12-04T21:06:50.202Z,16.37
2022-12-04T21:09:22.852Z,17.32
2022-12-04T21:11:54.386Z,22.00
2022-12-04T21:14:47.293Z,22.32
2022-12-04T21:17:18.934Z,23.05
2022-12-04T21:19:49.938Z,23.30
2022-12-04T21:22:19.106Z,23.47
2022-12-04T21:24:47.565Z,20.55
2022-12-04T21:27:20.767Z,20.23
2022-12-04T21:29:44.817Z,18.62
2022-12-04T21:32:12.370Z,15.80
2022-12-04T21:34:46.482Z,15.15
2022-12-04T21:37:14.116Z,15.48
2022-12-04T21:39:43.193Z,13.55
2022-12-04T21:42:29.432Z,12.78
2022-12-04T21:45:00.408Z,10.95
2022-12-04T21:47:28.460Z,11.40
2022-12-04T21:49:56.782Z,10.90
2022-12-04T21:52:25.091Z,10.03
2022-12-04T21:54:54.374Z,9.58
2022-12-04T21:57:22.477Z,9.80
2022-12-04T21:59:53.155Z,8.23
2022-12-04T22:02:21.368Z,8.58
2022-12-04T22:04:49.619Z,9.18
2022-12-04T22:07:17.143Z,13.60
2022-12-04T22:09:46.547Z,17.10
2022-12-04T22:12:41.012Z,15.08
2022-12-04T22:14:43.721Z,13.98
2022-12-04T22:17:11.279Z,12.60
2022-12-04T22:19:39.018Z,12.95
2022-12-04T22:22:06.563Z,13.43
2022-12-04T22:24:34.023Z,12.47
2022-12-04T22:27:01.593Z,12.07
2022-12-04T22:31:59.139Z,17.10
2022-12-04T22:34:26.947Z,11.28
2022-12-04T22:36:54.377Z,10.30
2022-12-04T22:39:22.111Z,12.25
2022-12-04T22:41:49.765Z,15.40
2022-12-04T22:44:17.269Z,11.48
2022-12-04T22:46:45.204Z,11.33
2022-12-04T22:49:12.759Z,11.28
2022-12-04T22:51:40.517Z,10.93
2022-12-04T22:54:13.464Z,11.57
2022-12-04T22:56:43.191Z,9.45
2022-12-04T22:59:11.191Z,9.15
2022-12-04T23:01:39.040Z,8.78
2022-12-04T23:04:06.496Z,8.73
2022-12-04T23:06:34.446Z,8.58
2022-12-04T23:09:06.823Z,9.25
2022-12-04T23:11:35.850Z,9.73
2022-12-04T23:14:07.265Z,9.70
2022-12-04T23:16:38.118Z,8.40
2022-12-04T23:19:08.783Z,8.45
2022-12-04T23:21:36.552Z,8.83
2022-12-04T23:24:05.009Z,8.75
2022-12-04T23:26:36.691Z,8.20
2022-12-04T23:29:23.468Z,9.18
2022-12-04T23:31:35.678Z,8.38
2022-12-04T23:34:05.594Z,9.90
2022-12-04T23:36:34.248Z,8.60
2022-12-04T23:39:01.987Z,8.33
2022-12-04T23:41:31.318Z,9.05
2022-12-04T23:43:59.145Z,9.20
2022-12-04T23:46:31.864Z,10.05
2022-12-04T23:49:00.640Z,10.05
2022-12-04T23:51:28.871Z,10.25
2022-12-04T23:53:56.907Z,9.85
2022-12-04T23:56:27.250Z,9.40
2022-12-04T23:58:57.195Z,9.88
